Time;durP1;ratioP1;P1;durP2;ratioP2;P2;SDS_P1;SDS_P2;PMS_P1;PMS_P2;Temp;Humidity;BMP_temperature;BMP_pressure;BME280_temperature;BME280_humidity;BME280_pressure;Samples;Min_cycle;Max_cycle;Signal;HPM_P1;HPM_P2
2022/01/29 00:00:39;;;;;;;15.67;13.97;;;;;;;2.64;100.00;102054.53;5006349;28;20184;-47
2022/01/29 00:03:04;;;;;;;18.93;15.57;;;;;;;2.65;100.00;102055.41;5004438;28;20188;-47
2022/01/29 00:05:30;;;;;;;20.03;15.37;;;;;;;2.63;100.00;102060.44;5001783;28;20215;-46
2022/01/29 00:07:55;;;;;;;18.10;13.80;;;;;;;2.63;100.00;102062.13;5005353;28;20215;-47
2022/01/29 00:10:21;;;;;;;15.23;13.33;;;;;;;2.58;100.00;102047.41;5003952;28;20632;-46
2022/01/29 00:12:47;;;;;;;15.87;13.83;;;;;;;2.56;100.00;102043.91;5005187;28;20208;-47
2022/01/29 00:15:12;;;;;;;15.73;12.70;;;;;;;2.49;100.00;102036.72;5006828;28;20715;-46
2022/01/29 00:17:38;;;;;;;16.17;13.13;;;;;;;2.42;100.00;102043.19;5006773;28;20231;-46
2022/01/29 00:20:04;;;;;;;18.37;15.47;;;;;;;2.36;100.00;102026.66;5003310;28;20568;-46
2022/01/29 00:22:30;;;;;;;20.40;16.73;;;;;;;2.31;100.00;102020.41;5007219;28;20207;-46
2022/01/29 00:24:57;;;;;;;20.60;18.03;;;;;;;2.25;100.00;102028.63;5005909;28;20184;-46
2022/01/29 00:27:24;;;;;;;17.80;15.97;;;;;;;2.20;100.00;102047.94;5003686;28;20228;-46
2022/01/29 00:29:50;;;;;;;20.07;16.23;;;;;;;2.17;100.00;102045.25;5004550;28;20234;-46
2022/01/29 00:32:15;;;;;;;17.23;14.87;;;;;;;2.14;100.00;102056.16;5005725;28;20656;-46
2022/01/29 00:34:41;;;;;;;18.83;15.60;;;;;;;2.14;100.00;102043.38;5006163;28;20188;-46
2022/01/29 00:37:07;;;;;;;17.53;14.87;;;;;;;2.14;100.00;102051.03;5002221;28;20291;-46
2022/01/29 00:39:32;;;;;;;18.50;15.87;;;;;;;2.12;100.00;102053.53;5005304;28;20497;-48
2022/01/29 00:41:58;;;;;;;15.57;13.87;;;;;;;2.11;100.00;102045.78;5007895;28;20254;-46
2022/01/29 00:44:23;;;;;;;18.77;14.97;;;;;;;2.11;100.00;102050.91;5007985;28;20275;-46
2022/01/29 00:46:48;;;;;;;15.83;14.13;;;;;;;2.11;100.00;102053.44;5004653;28;20204;-45
2022/01/29 00:49:14;;;;;;;18.10;14.63;;;;;;;2.13;100.00;102054.38;5006121;28;20551;-45
2022/01/29 00:51:40;;;;;;;17.00;14.47;;;;;;;2.15;100.00;102044.28;5006520;28;20267;-45
2022/01/29 00:54:06;;;;;;;20.20;15.40;;;;;;;2.15;100.00;102041.72;5004393;28;20216;-46
2022/01/29 00:56:31;;;;;;;18.00;14.67;;;;;;;2.16;100.00;102040.91;5007764;28;20719;-46
2022/01/29 00:58:57;;;;;;;17.77;15.33;;;;;;;2.19;100.00;102046.19;5003722;28;20188;-46
2022/01/29 01:01:23;;;;;;;18.37;14.87;;;;;;;2.20;100.00;102042.81;5004157;28;20207;-48
2022/01/29 01:03:49;;;;;;;20.13;17.00;;;;;;;2.21;100.00;102045.47;5004441;28;20652;-45
2022/01/29 01:06:14;;;;;;;21.17;18.20;;;;;;;2.22;100.00;102037.03;5001165;28;20180;-48
2022/01/29 01:08:39;;;;;;;20.50;17.70;;;;;;;2.21;100.00;102019.03;5006931;28;20274;-46
2022/01/29 01:11:06;;;;;;;21.00;16.97;;;;;;;2.20;100.00;102024.94;5001803;28;20725;-47
2022/01/29 01:13:32;;;;;;;20.83;17.87;;;;;;;2.19;100.00;102030.88;5004221;28;20219;-46
2022/01/29 01:15:58;;;;;;;20.20;16.87;;;;;;;2.18;100.00;102044.44;5006505;28;20214;-47
2022/01/29 01:18:23;;;;;;;18.47;16.53;;;;;;;2.21;100.00;102045.47;5003320;28;20787;-46
2022/01/29 01:20:49;;;;;;;18.10;16.20;;;;;;;2.24;100.00;102049.88;5003594;28;20212;-48
2022/01/29 01:23:14;;;;;;;20.07;16.60;;;;;;;2.25;100.00;102038.84;5011144;28;20180;-48
2022/01/29 01:25:40;;;;;;;19.07;15.97;;;;;;;2.26;100.00;102031.28;5008825;28;20295;-46
2022/01/29 01:28:05;;;;;;;21.00;17.87;;;;;;;2.28;100.00;102027.09;5010322;28;20216;-48
2022/01/29 01:30:32;;;;;;;19.90;16.90;;;;;;;2.30;100.00;102027.22;5008380;28;20195;-47
2022/01/29 01:33:01;;;;;;;19.17;17.17;;;;;;;2.32;100.00;102024.72;5025204;28;20711;-47
2022/01/29 01:35:33;;;;;;;19.37;16.80;;;;;;;2.32;100.00;102032.38;5012123;28;20577;-46
2022/01/29 01:38:08;;;;;;;18.43;16.30;;;;;;;2.31;100.00;102013.63;5020972;28;20203;-47
2022/01/29 01:40:34;;;;;;;21.10;17.47;;;;;;;2.32;100.00;102007.72;5018048;28;20189;-47
2022/01/29 01:43:01;;;;;;;20.67;17.40;;;;;;;2.32;100.00;102014.50;5007701;28;20595;-46
2022/01/29 01:45:27;;;;;;;19.57;17.47;;;;;;;2.29;100.00;102005.88;5008627;28;20275;-46
2022/01/29 01:47:53;;;;;;;20.83;18.67;;;;;;;2.31;100.00;101999.97;5008598;28;20251;-46
2022/01/29 01:50:20;;;;;;;24.00;19.80;;;;;;;2.27;100.00;101999.81;5009616;28;20188;-46
2022/01/29 01:52:45;;;;;;;21.33;19.10;;;;;;;2.27;100.00;102004.03;5010359;28;20752;-46
2022/01/29 01:55:10;;;;;;;22.93;19.90;;;;;;;2.25;100.00;102003.97;5022694;28;20188;-46
2022/01/29 01:57:36;;;;;;;23.43;19.87;;;;;;;2.24;100.00;101998.75;5014954;28;20706;-46
2022/01/29 02:00:03;;;;;;;23.40;20.70;;;;;;;2.20;100.00;101989.19;5007581;28;20188;-46
2022/01/29 02:02:28;;;;;;;22.37;19.93;;;;;;;2.18;100.00;101978.88;5006966;28;20188;-45
2022/01/29 02:04:55;;;;;;;23.23;20.37;;;;;;;2.18;100.00;101978.03;5008147;28;20195;-47
2022/01/29 02:07:20;;;;;;;23.60;19.90;;;;;;;2.12;100.00;101979.44;5006684;28;20572;-46
2022/01/29 02:09:46;;;;;;;23.33;19.63;;;;;;;2.11;100.00;101989.59;5007696;28;20192;-45
2022/01/29 02:12:12;;;;;;;23.20;19.77;;;;;;;2.08;100.00;101987.75;5011019;28;21515;-45
2022/01/29 02:14:39;;;;;;;23.70;19.73;;;;;;;2.07;100.00;101985.97;5004574;28;20184;-45
2022/01/29 02:17:06;;;;;;;22.90;20.43;;;;;;;2.05;100.00;101985.00;5013099;28;20242;-45
2022/01/29 02:19:32;;;;;;;24.77;20.77;;;;;;;2.02;100.00;101968.66;5007030;28;20239;-48
2022/01/29 02:21:58;;;;;;;23.13;19.97;;;;;;;2.00;100.00;101970.25;5008190;28;20208;-47
2022/01/29 02:24:24;;;;;;;25.07;20.03;;;;;;;1.93;100.00;101961.38;5013183;28;20192;-47
2022/01/29 02:26:49;;;;;;;27.10;21.87;;;;;;;1.93;100.00;101958.84;5004286;28;20213;-47
2022/01/29 02:29:15;;;;;;;24.20;21.10;;;;;;;1.88;100.00;101939.84;5010057;28;20196;-47
2022/01/29 02:31:55;;;;;;;24.07;21.43;;;;;;;1.85;100.00;101943.09;5002843;28;22384;-48
2022/01/29 02:34:21;;;;;;;25.37;20.97;;;;;;;1.82;100.00;101935.28;5001969;28;20188;-47
2022/01/29 02:36:46;;;;;;;26.60;21.30;;;;;;;1.79;100.00;101933.44;4999892;28;20227;-47
2022/01/29 02:39:14;;;;;;;23.80;21.20;;;;;;;1.77;100.00;101929.06;5010235;28;20551;-48
2022/01/29 02:41:43;;;;;;;24.60;21.53;;;;;;;1.76;100.00;101928.16;5009713;28;20190;-47
2022/01/29 02:44:09;;;;;;;25.33;20.37;;;;;;;1.76;100.00;101922.19;5009729;28;20185;-47
2022/01/29 02:47:25;;;;;;;24.53;20.50;;;;;;;1.76;100.00;101928.16;5003682;28;20637;-47
2022/01/29 02:49:27;;;;;;;24.37;20.53;;;;;;;1.77;100.00;101929.06;5001421;28;20201;-47
2022/01/29 02:51:57;;;;;;;27.27;21.90;;;;;;;1.83;100.00;101921.72;5008356;28;20189;-47
2022/01/29 02:54:24;;;;;;;24.77;20.90;;;;;;;1.80;100.00;101917.34;5003386;28;20179;-46
2022/01/29 02:56:50;;;;;;;24.90;21.50;;;;;;;1.82;100.00;101920.84;5011558;28;20238;-46
2022/01/29 02:59:15;;;;;;;25.80;22.63;;;;;;;1.82;100.00;101914.84;5008455;28;20227;-47
2022/01/29 03:01:41;;;;;;;26.27;21.07;;;;;;;1.83;100.00;101925.16;5007840;28;20184;-47
2022/01/29 03:04:08;;;;;;;23.23;20.00;;;;;;;1.80;100.00;101912.22;4999968;28;20203;-47
2022/01/29 03:06:33;;;;;;;24.97;21.23;;;;;;;1.81;100.00;101910.56;5003293;28;20306;-47
2022/01/29 03:08:59;;;;;;;26.27;20.53;;;;;;;1.77;100.00;101912.06;5004228;28;20666;-48
2022/01/29 03:11:25;;;;;;;22.87;20.13;;;;;;;1.76;100.00;101907.75;5012133;28;20195;-47
2022/01/29 03:13:51;;;;;;;23.30;20.07;;;;;;;1.75;100.00;101908.53;5014560;28;20227;-45
2022/01/29 03:16:17;;;;;;;25.47;20.83;;;;;;;1.76;100.00;101909.44;5014618;28;20175;-47
2022/01/29 03:18:42;;;;;;;23.30;20.03;;;;;;;1.74;100.00;101904.22;5009670;28;20692;-47
2022/01/29 03:21:08;;;;;;;25.03;20.03;;;;;;;1.73;100.00;101896.50;5005855;28;20604;-47
2022/01/29 03:23:33;;;;;;;24.00;20.20;;;;;;;1.71;100.00;101896.44;5007785;28;21645;-46
2022/01/29 03:26:00;;;;;;;31.43;22.63;;;;;;;1.68;100.00;101902.22;5008068;28;20172;-47
2022/01/29 03:28:26;;;;;;;24.63;21.07;;;;;;;1.64;100.00;101899.44;5009339;28;20592;-47
2022/01/29 03:30:52;;;;;;;24.53;19.47;;;;;;;1.60;100.00;101903.50;5007378;28;20238;-46
2022/01/29 03:33:17;;;;;;;26.90;21.30;;;;;;;1.58;100.00;101897.44;5009520;28;20216;-46
2022/01/29 03:35:42;;;;;;;28.20;20.67;;;;;;;1.57;100.00;101892.28;5007547;28;20195;-47
2022/01/29 03:38:08;;;;;;;21.53;19.00;;;;;;;1.58;100.00;101879.59;5010658;28;20754;-47
2022/01/29 03:40:34;;;;;;;22.20;18.50;;;;;;;1.61;100.00;101883.97;5012185;28;20595;-47
2022/01/29 03:43:03;;;;;;;21.60;18.20;;;;;;;1.64;100.00;101884.13;5017259;28;20183;-46
2022/01/29 03:45:29;;;;;;;21.43;17.57;;;;;;;1.69;100.00;101900.56;5009350;28;20184;-46
2022/01/29 03:47:54;;;;;;;21.23;17.00;;;;;;;1.76;100.00;101891.56;5005544;28;20663;-46
2022/01/29 03:50:20;;;;;;;23.13;17.60;;;;;;;1.80;100.00;101890.94;5007673;28;20652;-47
2022/01/29 03:52:45;;;;;;;19.20;15.20;;;;;;;1.87;100.00;101889.59;5005656;28;20204;-47
2022/01/29 03:55:11;;;;;;;19.43;16.07;;;;;;;1.90;100.00;101875.28;5003423;28;20197;-47
2022/01/29 03:57:36;;;;;;;18.50;15.37;;;;;;;1.94;100.00;101882.31;5004176;28;20586;-47
2022/01/29 04:00:04;;;;;;;20.50;15.83;;;;;;;2.00;100.00;101874.09;5010968;28;20215;-46
2022/01/29 04:02:30;;;;;;;17.23;14.13;;;;;;;2.03;100.00;101870.81;5003674;28;20180;-47
2022/01/29 04:04:55;;;;;;;16.97;14.90;;;;;;;2.02;100.00;101875.06;5010905;28;20664;-47
2022/01/29 04:07:20;;;;;;;17.13;14.37;;;;;;;2.08;100.00;101870.25;5006064;28;20294;-46
2022/01/29 04:09:49;;;;;;;19.23;15.80;;;;;;;2.08;100.00;101867.69;5006910;28;20184;-47
2022/01/29 04:12:15;;;;;;;19.87;15.37;;;;;;;2.10;100.00;101870.34;5013784;28;20196;-46
2022/01/29 04:14:41;;;;;;;20.67;15.13;;;;;;;2.06;100.00;101869.28;5008746;28;20598;-46
2022/01/29 04:17:07;;;;;;;18.40;15.00;;;;;;;2.07;100.00;101859.97;5010224;28;20615;-46
2022/01/29 04:19:33;;;;;;;19.93;15.57;;;;;;;2.11;100.00;101861.91;5009037;28;20207;-47
2022/01/29 04:21:58;;;;;;;19.67;15.37;;;;;;;2.12;100.00;101863.63;5004526;28;20601;-48
2022/01/29 04:24:24;;;;;;;18.27;14.60;;;;;;;2.10;100.00;101866.09;5007025;28;20270;-45
2022/01/29 04:26:49;;;;;;;16.73;13.50;;;;;;;2.08;100.00;101877.91;5015600;28;20223;-48
2022/01/29 04:29:15;;;;;;;17.20;13.77;;;;;;;2.13;100.00;101863.72;5005316;28;20261;-48
2022/01/29 04:31:47;;;;;;;17.53;13.97;;;;;;;2.16;100.00;101859.56;5006932;28;20195;-48
2022/01/29 04:34:13;;;;;;;18.60;14.33;;;;;;;2.20;100.00;101854.69;5008338;28;20191;-47
2022/01/29 04:36:38;;;;;;;17.53;14.17;;;;;;;2.19;100.00;101857.19;5013587;28;20258;-47
2022/01/29 04:39:04;;;;;;;19.73;14.67;;;;;;;2.22;100.00;101868.41;5006736;28;20536;-48
2022/01/29 04:41:29;;;;;;;18.53;14.30;;;;;;;2.19;100.00;101873.38;5006208;28;20247;-46
2022/01/29 04:43:54;;;;;;;17.43;13.83;;;;;;;2.19;100.00;101877.63;5006321;28;20607;-47
2022/01/29 04:46:20;;;;;;;17.60;13.63;;;;;;;2.18;100.00;101886.06;5005014;28;20192;-44
2022/01/29 04:48:45;;;;;;;17.70;14.23;;;;;;;2.20;100.00;101894.66;5001451;28;20230;-46
2022/01/29 04:51:11;;;;;;;19.77;14.33;;;;;;;2.23;100.00;101887.16;5000481;28;20188;-46
2022/01/29 04:53:36;;;;;;;18.73;13.93;;;;;;;2.27;100.00;101887.41;5004633;28;20200;-46
2022/01/29 04:56:01;;;;;;;17.03;14.03;;;;;;;2.24;100.00;101881.25;5005655;28;20192;-46
2022/01/29 04:58:27;;;;;;;20.20;14.13;;;;;;;2.23;100.00;101876.94;5005566;28;20311;-46
2022/01/29 05:00:52;;;;;;;19.27;13.80;;;;;;;2.25;100.00;101875.34;5003013;28;20184;-46
2022/01/29 05:03:18;;;;;;;16.47;13.13;;;;;;;2.25;100.00;101877.91;5001783;28;20216;-46
2022/01/29 05:05:43;;;;;;;18.77;14.03;;;;;;;2.27;100.00;101878.88;5005775;28;20194;-46
2022/01/29 05:08:12;;;;;;;16.47;12.73;;;;;;;2.25;100.00;101880.47;5007875;28;20216;-46
2022/01/29 05:10:38;;;;;;;16.20;12.93;;;;;;;2.25;100.00;101876.25;5006427;28;20192;-46
2022/01/29 05:13:07;;;;;;;16.03;12.63;;;;;;;2.24;100.00;101879.59;5006313;28;20310;-48
2022/01/29 05:15:41;;;;;;;19.57;14.10;;;;;;;2.27;100.00;101886.53;5007827;28;20180;-48
2022/01/29 05:29:04;;;;;;;16.60;13.50;;;;;;;2.20;100.00;101887.91;5013065;28;20199;-47
2022/01/29 05:31:30;;;;;;;16.67;13.93;;;;;;;2.22;100.00;101882.84;5003405;28;20184;-47
2022/01/29 05:33:56;;;;;;;16.63;13.93;;;;;;;2.20;100.00;101869.13;5007419;28;20219;-47
2022/01/29 05:36:24;;;;;;;16.30;13.23;;;;;;;2.17;100.00;101879.22;5016752;28;20694;-46
2022/01/29 05:38:49;;;;;;;19.03;14.37;;;;;;;2.15;100.00;101879.09;5013710;28;20243;-46
2022/01/29 05:41:15;;;;;;;19.00;14.70;;;;;;;2.11;100.00;101872.13;5016148;28;20612;-47
2022/01/29 05:43:43;;;;;;;17.97;14.50;;;;;;;2.10;100.00;101876.31;5014637;28;20625;-47
2022/01/29 05:46:11;;;;;;;21.43;15.20;;;;;;;2.07;100.00;101863.41;5016004;28;20188;-47
2022/01/29 05:48:37;;;;;;;18.83;15.63;;;;;;;2.09;100.00;101849.03;5009045;28;20212;-46
2022/01/29 05:51:03;;;;;;;17.73;15.40;;;;;;;2.08;100.00;101847.28;5015440;28;20191;-45
2022/01/29 05:53:28;;;;;;;17.43;14.30;;;;;;;2.04;100.00;101842.78;5004994;28;20220;-45
2022/01/29 05:55:53;;;;;;;19.30;15.07;;;;;;;2.04;100.00;101830.03;5015942;28;20191;-46
2022/01/29 05:58:19;;;;;;;19.67;15.20;;;;;;;2.09;100.00;101840.50;4999697;28;20212;-46
2022/01/29 06:00:44;;;;;;;21.20;16.30;;;;;;;2.10;100.00;101822.69;4994427;28;20182;-44
2022/01/29 06:03:10;;;;;;;19.40;15.20;;;;;;;2.08;100.00;101814.06;5000331;28;20227;-47
2022/01/29 06:05:37;;;;;;;18.50;14.80;;;;;;;2.07;100.00;101814.00;5002941;28;20192;-47
2022/01/29 06:08:02;;;;;;;19.47;14.83;;;;;;;2.04;100.00;101813.84;5007591;28;20230;-46
2022/01/29 06:10:28;;;;;;;17.27;14.03;;;;;;;2.08;100.00;101810.66;5005908;28;20698;-46
2022/01/29 06:13:01;;;;;;;17.47;15.03;;;;;;;2.08;100.00;101810.66;5010771;28;20715;-46
2022/01/29 06:15:27;;;;;;;16.60;14.43;;;;;;;2.07;100.00;101812.31;5007216;28;20188;-46
2022/01/29 06:17:54;;;;;;;16.70;14.33;;;;;;;2.06;100.00;101831.00;5005483;28;20193;-47
2022/01/29 06:22:55;;;;;;;16.57;13.40;;;;;;;2.13;100.00;101834.72;5477528;23;20232;-46
2022/01/29 06:25:21;;;;;;;17.93;14.47;;;;;;;2.11;100.00;101836.34;5006787;28;20196;-46
2022/01/29 06:27:49;;;;;;;17.50;14.47;;;;;;;2.11;100.00;101828.69;5010454;28;20640;-45
2022/01/29 06:30:15;;;;;;;18.63;14.97;;;;;;;2.13;100.00;101830.50;5006140;28;20208;-47
2022/01/29 06:32:41;;;;;;;17.03;14.47;;;;;;;2.15;100.00;101812.69;5001944;28;20295;-45
2022/01/29 06:35:07;;;;;;;15.07;13.47;;;;;;;2.18;100.00;101815.41;4998740;28;20242;-46
2022/01/29 06:37:33;;;;;;;19.60;14.80;;;;;;;2.18;100.00;101812.88;5004661;28;20196;-46
2022/01/29 06:39:58;;;;;;;16.80;14.13;;;;;;;2.20;100.00;101810.38;5004731;28;20243;-46
2022/01/29 06:42:24;;;;;;;16.17;14.47;;;;;;;2.21;100.00;101807.91;5006745;28;20204;-45
2022/01/29 06:44:49;;;;;;;16.10;13.63;;;;;;;2.23;100.00;101807.97;5007537;28;20271;-46
2022/01/29 06:47:14;;;;;;;16.10;13.80;;;;;;;2.26;100.00;101800.47;5009385;28;20206;-46
2022/01/29 06:49:40;;;;;;;15.40;13.57;;;;;;;2.29;100.00;101785.31;5006145;28;20675;-45
2022/01/29 06:52:05;;;;;;;18.07;14.83;;;;;;;2.32;100.00;101787.13;5009417;28;20263;-47
2022/01/29 06:54:31;;;;;;;15.07;13.10;;;;;;;2.33;100.00;101791.44;5012605;28;20200;-47
2022/01/29 06:56:56;;;;;;;16.40;13.07;;;;;;;2.36;100.00;101796.69;5005080;28;20188;-47
2022/01/29 06:59:22;;;;;;;13.80;11.77;;;;;;;2.39;100.00;101797.72;5009175;28;20189;-47
2022/01/29 07:01:47;;;;;;;15.07;11.57;;;;;;;2.44;100.00;101790.25;5010069;28;20219;-47
2022/01/29 07:04:12;;;;;;;13.10;10.93;;;;;;;2.48;100.00;101796.44;5009360;28;20536;-46
2022/01/29 07:06:38;;;;;;;13.07;11.07;;;;;;;2.53;100.00;101800.06;5009281;28;20212;-46
2022/01/29 07:09:04;;;;;;;12.50;10.70;;;;;;;2.55;100.00;101796.78;5008951;28;20651;-45
2022/01/29 07:11:29;;;;;;;11.77;10.57;;;;;;;2.58;100.00;101784.13;5009897;28;20267;-46
2022/01/29 07:14:02;;;;;;;11.87;10.37;;;;;;;2.59;100.00;101788.44;5008881;28;20300;-46
2022/01/29 07:16:32;;;;;;;11.47;9.50;;;;;;;2.62;100.00;101776.63;5009116;28;20203;-46
2022/01/29 07:18:58;;;;;;;10.23;9.00;;;;;;;2.63;100.00;101771.59;5008450;28;20730;-46
2022/01/29 07:21:23;;;;;;;11.83;9.80;;;;;;;2.65;100.00;101766.56;5007799;28;20189;-46
2022/01/29 07:23:49;;;;;;;11.40;9.00;;;;;;;2.69;100.00;101760.78;5013228;28;20192;-46
2022/01/29 07:26:14;;;;;;;9.07;8.17;;;;;;;2.68;100.00;101775.22;5016581;28;20230;-46
2022/01/29 07:28:40;;;;;;;9.47;7.27;;;;;;;2.71;100.00;101777.94;5015581;28;20193;-47
2022/01/29 07:31:06;;;;;;;10.07;8.30;;;;;;;2.72;100.00;101779.69;5007149;28;20519;-46
2022/01/29 07:33:32;;;;;;;11.90;9.03;;;;;;;2.74;100.00;101778.09;5004076;28;20302;-46
2022/01/29 07:35:57;;;;;;;8.23;7.23;;;;;;;2.80;100.00;101781.75;5009340;28;20547;-46
2022/01/29 07:38:23;;;;;;;9.67;6.97;;;;;;;2.83;100.00;101782.75;5009209;28;20197;-46
2022/01/29 07:40:48;;;;;;;8.33;7.30;;;;;;;2.85;100.00;101778.59;5004623;28;22277;-46
2022/01/29 07:43:14;;;;;;;8.73;7.57;;;;;;;2.87;100.00;101776.09;5000282;28;20208;-46
2022/01/29 07:45:39;;;;;;;8.90;8.00;;;;;;;2.91;100.00;101778.00;5004773;28;20220;-46
2022/01/29 07:48:05;;;;;;;11.43;9.57;;;;;;;2.96;100.00;101775.66;5001686;28;20193;-46
2022/01/29 07:50:30;;;;;;;11.47;10.17;;;;;;;2.97;100.00;101782.53;5007027;28;20218;-46
2022/01/29 07:52:57;;;;;;;12.00;9.57;;;;;;;2.96;100.00;101778.22;5008706;28;20223;-47
2022/01/29 07:55:23;;;;;;;11.73;10.13;;;;;;;2.98;100.00;101774.06;5004571;28;20589;-44
2022/01/29 07:57:49;;;;;;;12.50;10.87;;;;;;;2.99;100.00;101776.66;5004341;28;20197;-46
2022/01/29 08:00:15;;;;;;;14.80;11.20;;;;;;;3.01;100.00;101766.53;5005144;28;20184;-46
2022/01/29 08:02:40;;;;;;;12.30;10.47;;;;;;;3.03;100.00;101772.56;5003776;28;20219;-46
2022/01/29 08:05:06;;;;;;;11.83;9.80;;;;;;;3.04;100.00;101775.22;5001422;28;20192;-46
2022/01/29 08:07:31;;;;;;;10.47;9.33;;;;;;;3.10;100.00;101777.16;5003581;28;20259;-46
2022/01/29 08:09:57;;;;;;;12.77;10.03;;;;;;;3.14;100.00;101776.50;5002464;28;20336;-46
2022/01/29 08:12:22;;;;;;;10.73;9.63;;;;;;;3.19;100.00;101779.28;5004807;28;20216;-46
2022/01/29 08:14:49;;;;;;;12.07;9.40;;;;;;;3.25;100.00;101774.44;5006655;28;20295;-46
2022/01/29 08:17:14;;;;;;;10.90;9.33;;;;;;;3.32;100.00;101776.44;5004921;28;20282;-46
2022/01/29 08:19:39;;;;;;;10.83;8.67;;;;;;;3.37;100.00;101776.66;5005767;28;20199;-46
2022/01/29 08:22:05;;;;;;;9.73;8.73;;;;;;;3.45;100.00;101777.88;4998675;28;20559;-46
2022/01/29 08:24:30;;;;;;;9.77;8.53;;;;;;;3.48;100.00;101772.88;5002723;28;20192;-46
2022/01/29 08:26:56;;;;;;;9.30;8.30;;;;;;;3.49;100.00;101777.19;5002574;28;20181;-46
2022/01/29 08:29:21;;;;;;;10.90;8.80;;;;;;;3.52;100.00;101786.72;5007442;28;20202;-46
2022/01/29 08:31:46;;;;;;;9.83;7.93;;;;;;;3.56;100.00;101778.34;5006666;28;20216;-46
2022/01/29 08:34:12;;;;;;;8.57;7.53;;;;;;;3.60;100.00;101770.00;5010869;28;20223;-46
2022/01/29 08:36:38;;;;;;;9.50;8.50;;;;;;;3.66;100.00;101769.38;5002338;28;20608;-46
2022/01/29 08:39:03;;;;;;;9.37;7.63;;;;;;;3.71;100.00;101759.31;5006944;28;20245;-46
2022/01/29 08:41:32;;;;;;;8.20;7.20;;;;;;;3.78;100.00;101766.47;5005350;28;20640;-45
2022/01/29 08:43:57;;;;;;;9.90;7.73;;;;;;;3.84;100.00;101751.38;5007006;28;20226;-46
2022/01/29 08:46:23;;;;;;;8.73;7.93;;;;;;;3.87;100.00;101753.19;5009401;28;20656;-46
2022/01/29 08:48:49;;;;;;;8.30;7.50;;;;;;;3.93;100.00;101762.00;5003441;28;20199;-46
2022/01/29 08:51:15;;;;;;;8.67;7.40;;;;;;;4.01;100.00;101756.34;4999188;28;20193;-46
2022/01/29 08:53:41;;;;;;;10.40;8.83;;;;;;;4.08;100.00;101755.78;5002719;28;20227;-46
2022/01/29 08:56:07;;;;;;;10.77;8.90;;;;;;;4.12;100.00;101755.94;5003504;28;20280;-46
2022/01/29 08:58:33;;;;;;;9.13;7.97;;;;;;;4.15;100.00;101752.66;5017711;28;20203;-46
2022/01/29 09:00:59;;;;;;;11.23;9.17;;;;;;;4.17;100.00;101737.34;5003637;28;20188;-46
2022/01/29 09:03:24;;;;;;;11.17;9.17;;;;;;;4.20;100.00;101740.03;5004066;28;20204;-48
2022/01/29 09:05:50;;;;;;;10.20;8.83;;;;;;;4.25;100.00;101734.28;5000657;28;20195;-47
2022/01/29 09:08:17;;;;;;;11.13;9.20;;;;;;;4.36;100.00;101728.69;5001186;28;20222;-47
2022/01/29 09:10:43;;;;;;;12.73;9.07;;;;;;;4.50;100.00;101735.25;5000927;28;20258;-47
2022/01/29 09:13:09;;;;;;;10.83;9.10;;;;;;;4.65;100.00;101732.41;4999165;28;20228;-47
2022/01/29 09:15:35;;;;;;;10.63;9.20;;;;;;;4.83;100.00;101737.38;4996726;28;20196;-45
2022/01/29 09:18:01;;;;;;;10.23;9.13;;;;;;;5.04;100.00;101733.88;5005778;28;20192;-45
2022/01/29 09:20:27;;;;;;;10.23;8.77;;;;;;;5.21;100.00;101726.78;5005634;28;20194;-46
2022/01/29 09:22:52;;;;;;;9.80;8.77;;;;;;;5.35;99.44;101727.28;5004249;28;20306;-45
2022/01/29 09:25:18;;;;;;;10.73;8.63;;;;;;;5.53;99.10;101721.91;5005099;28;20200;-45
2022/01/29 09:27:43;;;;;;;10.10;8.30;;;;;;;5.68;98.44;101716.41;5004922;28;20220;-46
2022/01/29 09:30:09;;;;;;;10.23;8.70;;;;;;;5.86;97.90;101715.31;5003535;28;20723;-46
2022/01/29 09:32:35;;;;;;;10.53;8.60;;;;;;;6.04;97.34;101717.66;5008861;28;20223;-46
2022/01/29 09:35:01;;;;;;;10.57;8.90;;;;;;;6.17;96.28;101713.78;5003759;28;20251;-46
2022/01/29 09:37:26;;;;;;;9.37;8.13;;;;;;;6.31;96.21;101720.22;5003261;28;20181;-45
2022/01/29 09:39:53;;;;;;;10.37;8.07;;;;;;;6.42;95.37;101724.84;5002217;28;20196;-46
2022/01/29 09:42:19;;;;;;;8.87;7.90;;;;;;;6.44;95.27;101726.63;5004861;28;20625;-47
2022/01/29 09:44:47;;;;;;;9.63;7.23;;;;;;;6.41;95.62;101734.25;5007522;28;20191;-47
2022/01/29 09:47:13;;;;;;;9.07;7.70;;;;;;;6.18;95.70;101731.84;5000832;28;20686;-46
2022/01/29 09:49:39;;;;;;;9.83;7.90;;;;;;;5.88;96.17;101739.34;5002842;28;20599;-47
2022/01/29 09:52:04;;;;;;;10.20;8.80;;;;;;;5.71;96.47;101738.78;5008926;28;20705;-46
2022/01/29 09:54:30;;;;;;;9.63;8.57;;;;;;;5.49;97.32;101743.16;5010788;28;20186;-46
2022/01/29 09:56:55;;;;;;;9.97;8.53;;;;;;;5.32;98.39;101738.31;5004183;28;20578;-46
2022/01/29 09:59:24;;;;;;;9.47;8.50;;;;;;;5.15;99.30;101742.84;5008401;28;20197;-46
2022/01/29 10:01:50;;;;;;;9.10;8.20;;;;;;;5.02;100.00;101743.19;5008687;28;20209;-46
2022/01/29 10:04:16;;;;;;;9.30;7.80;;;;;;;5.02;100.00;101744.06;5007888;28;20180;-46
2022/01/29 10:06:43;;;;;;;11.27;8.10;;;;;;;5.08;100.00;101735.72;5011006;28;20188;-46
2022/01/29 10:09:11;;;;;;;9.57;8.57;;;;;;;5.17;100.00;101748.91;5003150;28;20239;-46
2022/01/29 10:11:37;;;;;;;12.50;11.27;;;;;;;5.29;100.00;101745.03;5003246;28;20589;-46
2022/01/29 10:14:04;;;;;;;10.57;9.47;;;;;;;5.37;100.00;101745.31;5007302;28;20224;-46
2022/01/29 10:16:32;;;;;;;11.93;10.30;;;;;;;5.49;100.00;101730.31;5005330;28;20193;-46
2022/01/29 10:19:07;;;;;;;11.97;10.77;;;;;;;5.50;100.00;101726.94;5005469;28;20192;-46
2022/01/29 10:21:41;;;;;;;11.93;9.97;;;;;;;5.45;100.00;101731.91;5005077;28;20217;-46
2022/01/29 10:24:15;;;;;;;18.80;14.33;;;;;;;5.38;100.00;101729.94;4998596;28;20188;-46
2022/01/29 10:26:50;;;;;;;10.90;9.23;;;;;;;5.39;100.00;101718.84;5008941;28;20191;-46
2022/01/29 10:29:20;;;;;;;10.60;9.00;;;;;;;5.41;100.00;101717.22;5002166;28;20191;-45
2022/01/29 10:31:47;;;;;;;8.70;7.90;;;;;;;5.46;100.00;101715.69;5008754;28;20217;-46
2022/01/29 10:34:22;;;;;;;9.93;8.90;;;;;;;5.52;100.00;101711.59;5004348;28;20229;-47
2022/01/29 10:37:18;;;;;;;13.70;12.23;;;;;;;5.63;100.00;101712.84;5006120;28;20769;-46
2022/01/29 10:40:23;;;;;;;11.27;9.83;;;;;;;5.67;100.00;101716.38;4999830;28;20186;-46
2022/01/29 10:42:49;;;;;;;10.90;9.13;;;;;;;5.63;100.00;101698.28;5003848;28;20274;-46
2022/01/29 10:45:14;;;;;;;12.20;11.00;;;;;;;5.58;100.00;101698.97;5003721;28;20649;-46
2022/01/29 10:47:57;;;;;;;12.53;10.50;;;;;;;5.59;100.00;101704.16;5004743;28;20240;-46
2022/01/29 10:50:22;;;;;;;9.63;8.13;;;;;;;5.61;100.00;101694.78;5004352;28;20588;-46
2022/01/29 10:52:48;;;;;;;19.70;10.97;;;;;;;5.60;100.00;101690.47;5001798;28;20217;-46
2022/01/29 10:55:14;;;;;;;10.33;8.00;;;;;;;5.64;100.00;101687.19;5006445;28;20199;-46
2022/01/29 10:57:49;;;;;;;7.43;6.57;;;;;;;5.70;100.00;101688.25;5006816;28;20197;-46
2022/01/29 11:00:24;;;;;;;9.60;7.50;;;;;;;5.79;100.00;101686.84;5005283;28;20223;-46
2022/01/29 11:02:54;;;;;;;9.87;8.17;;;;;;;5.83;100.00;101677.53;5004823;28;20579;-46
2022/01/29 11:05:24;;;;;;;7.93;6.97;;;;;;;5.82;100.00;101670.66;5007674;28;20205;-46
2022/01/29 11:07:52;;;;;;;8.60;7.47;;;;;;;5.82;100.00;101677.50;5004870;28;20222;-46
2022/01/29 11:10:19;;;;;;;8.47;7.23;;;;;;;5.81;100.00;101663.78;5004620;28;20727;-46
2022/01/29 11:12:46;;;;;;;9.07;7.63;;;;;;;5.83;100.00;101667.28;5005182;28;20217;-46
2022/01/29 11:15:14;;;;;;;8.80;7.37;;;;;;;5.88;100.00;101664.84;5000973;28;20568;-46
2022/01/29 11:17:40;;;;;;;9.43;8.23;;;;;;;6.00;100.00;101665.25;5005563;28;20317;-45
2022/01/29 11:20:06;;;;;;;10.87;8.13;;;;;;;6.07;100.00;101667.22;5005351;28;20190;-46
2022/01/29 11:22:35;;;;;;;9.07;7.20;;;;;;;6.13;100.00;101665.66;5003562;28;20214;-46
2022/01/29 11:25:06;;;;;;;7.07;6.17;;;;;;;6.23;100.00;101660.84;5006124;28;20209;-46